Time;durP1;ratioP1;P1;durP2;ratioP2;P2;SDS_P1;SDS_P2;PMS_P1;PMS_P2;Temp;Humidity;BMP_temperature;BMP_pressure;BME280_temperature;BME280_humidity;BME280_pressure;Samples;Min_cycle;Max_cycle;Signal;HPM_P1;HPM_P2
2023/12/03 00:00:15;;;;;;;21.20;10.90;;;;;;;-3.89;100.00;95889.02;108782;1273;22532;-79
2023/12/03 00:03:04;;;;;;;21.10;10.90;;;;;;;-3.89;100.00;95892.25;108753;1271;22529;-79
2023/12/03 00:05:32;;;;;;;15.60;8.30;;;;;;;-3.89;100.00;95898.03;108754;1273;22534;-79
2023/12/03 00:08:02;;;;;;;16.80;9.50;;;;;;;-3.89;100.00;95894.80;108883;1269;22706;-79
2023/12/03 00:10:31;;;;;;;18.30;8.90;;;;;;;-3.88;100.00;95901.53;108832;1270;24219;-79
2023/12/03 00:13:00;;;;;;;19.70;9.80;;;;;;;-3.88;100.00;95903.40;108793;1273;22517;-79
2023/12/03 00:15:29;;;;;;;18.00;9.40;;;;;;;-3.87;100.00;95909.05;108777;1273;22526;-79
2023/12/03 00:17:57;;;;;;;20.30;10.90;;;;;;;-3.86;100.00;95915.06;108777;1273;21818;-79
2023/12/03 00:20:28;;;;;;;22.40;11.10;;;;;;;-3.86;99.99;95924.06;108772;1273;22607;-79
2023/12/03 00:22:56;;;;;;;17.30;8.30;;;;;;;-3.87;99.97;95930.96;108796;1269;24636;-79
2023/12/03 00:25:27;;;;;;;18.20;10.90;;;;;;;-3.86;99.96;95937.25;108768;1273;22529;-79
2023/12/03 00:27:55;;;;;;;17.20;9.20;;;;;;;-3.86;99.92;95935.30;108764;1273;22528;-78
2023/12/03 00:30:25;;;;;;;21.60;11.00;;;;;;;-3.85;99.82;95942.02;108790;1266;25366;-78
2023/12/03 00:32:53;;;;;;;20.30;10.30;;;;;;;-3.84;99.71;95951.15;108722;1269;22517;-79
2023/12/03 00:35:22;;;;;;;20.90;11.80;;;;;;;-3.84;99.49;95955.68;108832;1273;22658;-78
2023/12/03 00:37:51;;;;;;;19.50;9.60;;;;;;;-3.83;99.42;95960.46;108739;1273;22522;-78
2023/12/03 00:40:21;;;;;;;15.70;8.80;;;;;;;-3.84;99.37;95970.02;108791;1273;22556;-79
2023/12/03 00:42:50;;;;;;;21.60;12.30;;;;;;;-3.84;99.33;95973.73;108808;1273;22710;-79
2023/12/03 00:45:18;;;;;;;20.10;10.50;;;;;;;-3.84;99.20;95978.39;108812;1273;22517;-79
2023/12/03 00:47:47;;;;;;;20.90;10.90;;;;;;;-3.85;99.20;95983.81;108747;1273;22544;-79
2023/12/03 00:50:16;;;;;;;23.30;12.40;;;;;;;-3.85;99.20;95990.79;108773;1273;22551;-79
2023/12/03 00:52:44;;;;;;;16.30;9.10;;;;;;;-3.85;99.16;95993.17;108801;1273;22552;-78
2023/12/03 00:55:14;;;;;;;16.50;8.80;;;;;;;-3.85;99.17;96008.88;108813;1273;22770;-79
2023/12/03 00:57:45;;;;;;;17.20;9.10;;;;;;;-3.85;99.14;96019.59;108731;1273;22520;-78
2023/12/03 01:00:17;;;;;;;22.90;11.50;;;;;;;-3.84;99.17;96025.68;108801;1265;22514;-78
2023/12/03 01:02:46;;;;;;;20.70;11.60;;;;;;;-3.84;99.12;96029.06;108774;1273;22628;-79
2023/12/03 01:05:14;;;;;;;22.90;12.70;;;;;;;-3.82;99.08;96032.64;108750;1273;22537;-79
2023/12/03 01:07:43;;;;;;;13.00;7.50;;;;;;;-3.80;99.07;96032.05;108769;1273;23801;-78
2023/12/03 01:10:13;;;;;;;18.30;9.60;;;;;;;-3.80;99.13;96038.00;108809;1273;22524;-78
2023/12/03 01:12:44;;;;;;;17.60;9.10;;;;;;;-3.78;98.93;96041.02;108806;1270;22532;-79
2023/12/03 01:15:15;;;;;;;21.20;9.90;;;;;;;-3.77;98.87;96049.55;108818;1273;22866;-79
2023/12/03 01:17:46;;;;;;;22.30;9.30;;;;;;;-3.77;98.85;96048.50;108797;1273;22612;-78
2023/12/03 01:20:17;;;;;;;20.90;10.50;;;;;;;-3.77;98.72;96048.35;108764;1273;23831;-78
2023/12/03 01:22:48;;;;;;;24.50;12.30;;;;;;;-3.78;98.69;96050.27;108775;1273;22516;-78
2023/12/03 01:25:19;;;;;;;23.20;12.00;;;;;;;-3.80;98.45;96045.55;108795;1273;22563;-79
2023/12/03 01:27:47;;;;;;;15.80;9.20;;;;;;;-3.82;98.49;96046.83;108746;1272;23308;-78
2023/12/03 01:30:16;;;;;;;26.70;14.30;;;;;;;-3.83;98.36;96052.95;108760;1269;23569;-79
2023/12/03 01:32:45;;;;;;;26.50;13.70;;;;;;;-3.84;98.31;96060.65;108774;1273;22530;-79
2023/12/03 01:35:19;;;;;;;25.00;11.70;;;;;;;-3.86;98.31;96065.55;108770;1273;22847;-79
2023/12/03 01:37:48;;;;;;;25.60;12.20;;;;;;;-3.88;98.23;96072.54;108724;1273;25322;-78
2023/12/03 01:40:18;;;;;;;33.70;12.50;;;;;;;-3.89;98.11;96074.06;108797;1255;22576;-79
2023/12/03 01:42:49;;;;;;;31.40;16.50;;;;;;;-3.91;98.22;96070.39;108803;1273;22528;-79
2023/12/03 01:45:18;;;;;;;30.30;15.00;;;;;;;-3.92;98.19;96076.41;108820;1273;22536;-79
2023/12/03 01:47:47;;;;;;;28.50;13.00;;;;;;;-3.95;98.16;96070.54;108754;1269;25260;-78
2023/12/03 01:50:16;;;;;;;26.30;12.60;;;;;;;-3.96;98.15;96073.33;108764;1273;22501;-79
2023/12/03 01:52:44;;;;;;;27.60;12.40;;;;;;;-3.98;98.16;96073.52;108784;1272;22625;-79
2023/12/03 01:55:13;;;;;;;37.30;19.30;;;;;;;-3.99;98.19;96078.39;108778;1272;22577;-79
2023/12/03 01:57:47;;;;;;;28.00;13.50;;;;;;;-4.01;98.16;96081.51;108755;1273;25581;-79
2023/12/03 02:00:18;;;;;;;39.10;19.70;;;;;;;-4.02;98.19;96097.00;108801;1272;22518;-78
2023/12/03 02:02:47;;;;;;;28.70;14.90;;;;;;;-4.02;98.22;96097.76;108806;1273;24209;-79
2023/12/03 02:05:16;;;;;;;35.90;18.40;;;;;;;-4.02;98.20;96098.99;108753;1267;22510;-79
2023/12/03 02:07:47;;;;;;;32.20;18.40;;;;;;;-4.03;98.18;96101.42;108793;1273;22525;-78
2023/12/03 02:10:16;;;;;;;29.30;16.60;;;;;;;-4.05;98.20;96105.64;108821;1273;22696;-79
2023/12/03 02:12:47;;;;;;;38.80;19.40;;;;;;;-4.04;98.19;96110.43;108734;1269;23746;-79
2023/12/03 02:15:18;;;;;;;35.20;18.30;;;;;;;-4.04;98.20;96098.20;108803;1273;24196;-79
2023/12/03 02:17:50;;;;;;;39.40;22.80;;;;;;;-4.04;98.13;96107.48;108709;1269;22533;-78
2023/12/03 02:20:17;;;;;;;;;;;;;;;-4.04;97.99;96110.94;108782;1273;24423;-79
2023/12/03 02:22:59;;;;;;;30.10;16.20;;;;;;;-4.01;97.99;96118.86;108777;1264;22716;-79
2023/12/03 02:25:28;;;;;;;40.40;20.80;;;;;;;-4.01;97.79;96130.05;108801;1273;22510;-79
2023/12/03 02:27:59;;;;;;;38.90;19.60;;;;;;;-4.02;97.81;96133.16;108761;1273;23040;-78
2023/12/03 02:30:27;;;;;;;33.30;18.50;;;;;;;-4.02;97.80;96138.14;108748;1270;22592;-79
2023/12/03 02:32:58;;;;;;;38.20;16.50;;;;;;;-4.02;97.73;96137.54;108790;1273;22559;-79
2023/12/03 02:35:26;;;;;;;;;;;;;;;-4.02;97.69;96141.52;108832;1273;25250;-79
2023/12/03 02:37:54;;;;;;;35.60;17.70;;;;;;;-4.02;97.65;96143.71;108784;1273;22614;-78
2023/12/03 02:40:25;;;;;;;37.00;20.60;;;;;;;-4.03;97.62;96145.91;108773;1273;24211;-79
2023/12/03 02:42:54;;;;;;;33.80;16.00;;;;;;;-4.04;97.55;96147.91;108749;1267;26633;-79
2023/12/03 02:45:23;;;;;;;42.30;20.70;;;;;;;-4.04;97.54;96159.85;108806;1269;22522;-78
2023/12/03 02:47:51;;;;;;;36.40;19.40;;;;;;;-4.07;97.54;96160.52;108748;1267;23895;-79
2023/12/03 02:50:19;;;;;;;42.20;21.10;;;;;;;-4.07;97.46;96168.33;108760;1274;22497;-79
2023/12/03 02:52:48;;;;;;;31.10;17.00;;;;;;;-4.08;97.47;96168.00;108798;1273;22706;-79
2023/12/03 02:55:16;;;;;;;36.20;21.40;;;;;;;-4.09;97.42;96170.39;108818;1273;22802;-79
2023/12/03 02:57:47;;;;;;;31.50;17.60;;;;;;;-4.10;97.26;96169.14;108733;1273;22521;-78
2023/12/03 03:00:18;;;;;;;36.70;19.70;;;;;;;-4.11;97.28;96174.08;108785;1269;22537;-79
2023/12/03 03:02:48;;;;;;;42.10;22.70;;;;;;;-4.14;97.20;96182.77;108842;1273;22522;-79
2023/12/03 03:05:17;;;;;;;28.50;16.20;;;;;;;-4.14;97.14;96178.73;108756;1273;26437;-79
2023/12/03 03:07:45;;;;;;;33.40;19.00;;;;;;;-4.17;97.04;96176.79;108780;1267;22520;-79
2023/12/03 03:10:13;;;;;;;32.50;16.10;;;;;;;-4.20;97.13;96179.05;108620;1274;160506;-79
2023/12/03 03:12:41;;;;;;;30.70;17.90;;;;;;;-4.23;97.08;96178.16;108791;1267;25492;-79
2023/12/03 03:15:19;;;;;;;35.40;19.10;;;;;;;-4.24;97.10;96180.27;108788;1273;22567;-79
2023/12/03 03:17:47;;;;;;;32.30;19.10;;;;;;;-4.25;97.20;96178.08;108766;1273;23759;-78
2023/12/03 03:20:21;;;;;;;28.80;14.90;;;;;;;-4.24;97.08;96192.17;108734;1273;24605;-79
2023/12/03 03:22:49;;;;;;;24.50;14.50;;;;;;;-4.24;96.96;96200.28;108815;1273;22641;-79
2023/12/03 03:25:20;;;;;;;21.80;12.40;;;;;;;-4.25;96.88;96198.02;108761;1273;25409;-79
2023/12/03 03:27:49;;;;;;;25.00;15.40;;;;;;;-4.26;96.75;96204.50;108707;1273;25277;-78
2023/12/03 03:30:17;;;;;;;22.50;13.90;;;;;;;-4.27;96.67;96204.50;108807;1274;22520;-79
2023/12/03 03:32:46;;;;;;;23.30;12.80;;;;;;;-4.29;96.70;96199.58;108813;1273;24081;-79
2023/12/03 03:35:17;;;;;;;25.90;13.40;;;;;;;-4.31;96.69;96213.06;108754;1273;21814;-79
2023/12/03 03:37:46;;;;;;;26.80;15.20;;;;;;;-4.32;96.54;96213.42;108794;1273;24201;-79
2023/12/03 03:40:15;;;;;;;17.00;10.50;;;;;;;-4.34;96.40;96219.98;108780;1274;22536;-79
2023/12/03 03:42:44;;;;;;;22.60;12.50;;;;;;;-4.35;96.26;96219.52;108777;1273;22522;-79
2023/12/03 03:45:13;;;;;;;;;;;;;;;-4.37;96.35;96225.25;108802;1273;22485;-79
2023/12/03 03:47:41;;;;;;;18.40;9.90;;;;;;;-4.39;96.16;96232.69;108779;1273;22525;-79
2023/12/03 03:50:11;;;;;;;21.90;12.20;;;;;;;-4.42;96.08;96231.52;108795;1261;22553;-79
2023/12/03 03:52:42;;;;;;;19.70;12.00;;;;;;;-4.42;95.96;96232.16;108806;1269;22642;-79
2023/12/03 03:55:10;;;;;;;;;;;;;;;-4.42;95.79;96232.08;108846;1269;22516;-79
2023/12/03 03:57:40;;;;;;;22.50;12.50;;;;;;;-4.41;95.65;96229.21;108753;1273;25294;-79
2023/12/03 04:00:11;;;;;;;22.10;12.30;;;;;;;-4.40;95.48;96232.29;108824;1273;22587;-79
2023/12/03 04:02:40;;;;;;;22.60;12.00;;;;;;;-4.38;95.45;96230.41;108840;1273;22524;-79
2023/12/03 04:05:10;;;;;;;22.00;14.10;;;;;;;-4.39;95.35;96234.40;108777;1273;24241;-79
2023/12/03 04:07:39;;;;;;;24.60;14.20;;;;;;;-4.40;95.18;96234.28;108794;1273;22528;-78
2023/12/03 04:10:10;;;;;;;17.10;10.50;;;;;;;-4.41;95.22;96244.51;108758;1273;24887;-79
2023/12/03 04:12:38;;;;;;;18.80;11.30;;;;;;;-4.41;95.23;96250.63;108838;1273;25448;-79
2023/12/03 04:15:11;;;;;;;22.30;12.60;;;;;;;-4.43;95.25;96257.08;108806;1273;22528;-79
2023/12/03 04:17:39;;;;;;;21.30;12.50;;;;;;;-4.45;95.32;96259.06;108776;1269;22536;-78
2023/12/03 04:20:19;;;;;;;16.70;11.00;;;;;;;-4.46;95.38;96264.52;108775;1270;23850;-79
2023/12/03 04:22:47;;;;;;;16.20;9.70;;;;;;;-4.47;95.44;96263.04;108812;1273;23245;-79
2023/12/03 04:25:18;;;;;;;19.10;10.90;;;;;;;-4.47;95.42;96269.48;108795;1270;22510;-79
2023/12/03 04:27:49;;;;;;;24.20;13.10;;;;;;;-4.48;95.40;96279.08;108774;1251;22801;-78
2023/12/03 04:30:17;;;;;;;19.70;10.00;;;;;;;-4.50;95.37;96276.67;108781;1273;22531;-79
2023/12/03 04:32:46;;;;;;;20.30;12.30;;;;;;;-4.49;95.46;96280.34;108774;1272;24209;-79
2023/12/03 04:35:14;;;;;;;;;;;;;;;-4.49;95.35;96280.03;108846;1273;22513;-79
2023/12/03 04:37:49;;;;;;;17.10;8.90;;;;;;;-4.50;95.29;96283.24;108743;1273;22520;-78
2023/12/03 04:40:20;;;;;;;14.00;8.40;;;;;;;-4.52;95.26;96289.50;108797;1270;25428;-79
2023/12/03 04:42:51;;;;;;;13.80;9.40;;;;;;;-4.53;95.22;96284.45;108799;1273;22526;-79
2023/12/03 04:45:19;;;;;;;22.30;12.00;;;;;;;-4.52;95.13;96290.45;108825;1273;22521;-79
2023/12/03 04:47:47;;;;;;;15.30;9.60;;;;;;;-4.53;95.26;96297.98;108768;1273;22483;-78
2023/12/03 04:50:15;;;;;;;22.50;13.80;;;;;;;-4.55;94.99;96301.71;108768;1273;22555;-79
2023/12/03 04:52:48;;;;;;;14.50;8.30;;;;;;;-4.55;95.03;96311.02;108852;1273;22570;-79
2023/12/03 04:55:19;;;;;;;20.90;11.20;;;;;;;-4.56;95.07;96311.14;108767;1273;25550;-79
2023/12/03 04:57:52;;;;;;;22.80;14.40;;;;;;;-4.57;95.10;96312.20;108748;1273;22747;-79
2023/12/03 05:00:21;;;;;;;22.80;12.60;;;;;;;-4.56;95.09;96319.33;108775;1270;24212;-79
2023/12/03 05:02:52;;;;;;;18.10;10.60;;;;;;;-4.54;95.03;96326.50;108753;1266;24144;-78
2023/12/03 05:05:20;;;;;;;14.90;8.90;;;;;;;-4.54;94.95;96324.48;108747;1273;25446;-79
2023/12/03 05:07:49;;;;;;;14.50;8.60;;;;;;;-4.55;94.82;96331.27;108771;1273;23046;-79
2023/12/03 05:10:17;;;;;;;16.00;9.40;;;;;;;-4.55;94.73;96340.11;108785;1270;22587;-79
2023/12/03 05:12:45;;;;;;;15.80;8.50;;;;;;;-4.55;94.61;96350.30;108775;1273;25186;-79
2023/12/03 05:15:16;;;;;;;16.00;10.00;;;;;;;-4.56;94.53;96356.30;108765;1270;22514;-79
2023/12/03 05:17:44;;;;;;;15.10;7.60;;;;;;;-4.57;94.37;96360.88;108768;1273;25213;-79
2023/12/03 05:20:15;;;;;;;14.00;7.30;;;;;;;-4.59;94.26;96368.19;108792;1273;25482;-79
2023/12/03 05:22:43;;;;;;;15.00;9.30;;;;;;;-4.60;94.07;96373.63;108807;1266;24208;-78
2023/12/03 05:25:12;;;;;;;11.10;7.20;;;;;;;-4.60;94.03;96372.16;108755;1273;22662;-78
2023/12/03 05:27:44;;;;;;;16.40;8.20;;;;;;;-4.61;93.97;96377.77;108776;1273;26566;-78
2023/12/03 05:30:14;;;;;;;12.40;6.60;;;;;;;-4.61;93.82;96384.45;108775;1273;22524;-79
2023/12/03 05:32:46;;;;;;;12.60;7.60;;;;;;;-4.61;93.60;96386.76;108803;1273;22579;-79
2023/12/03 05:35:15;;;;;;;9.60;5.70;;;;;;;-4.63;93.50;96391.45;108827;1267;22540;-78
2023/12/03 05:37:43;;;;;;;13.70;8.10;;;;;;;-4.65;93.28;96382.74;108754;1273;22515;-77
2023/12/03 05:40:15;;;;;;;14.00;7.70;;;;;;;-4.67;92.90;96385.42;108800;1273;22649;-78
2023/12/03 05:42:43;;;;;;;12.70;7.80;;;;;;;-4.70;92.63;96382.15;108745;1273;25408;-78
2023/12/03 05:45:11;;;;;;;10.30;5.20;;;;;;;-4.70;92.70;96388.11;108824;1267;22501;-78
2023/12/03 05:47:40;;;;;;;14.70;7.60;;;;;;;-4.73;92.70;96388.38;108714;1273;22521;-78
2023/12/03 05:50:10;;;;;;;12.40;7.70;;;;;;;-4.74;92.83;96393.98;108806;1267;22494;-78
2023/12/03 05:52:39;;;;;;;11.10;6.00;;;;;;;-4.73;92.85;96396.38;108787;1267;22596;-78
2023/12/03 05:55:12;;;;;;;12.50;7.50;;;;;;;-4.74;92.65;96394.77;108795;1267;22760;-79
2023/12/03 05:57:41;;;;;;;8.00;4.70;;;;;;;-4.75;92.73;96395.45;108714;1261;22511;-79
2023/12/03 06:00:13;;;;;;;11.60;6.50;;;;;;;-4.76;92.73;96394.64;108768;1273;23340;-79
2023/12/03 06:02:42;;;;;;;8.30;4.90;;;;;;;-4.76;92.66;96399.73;108847;1273;22607;-79
2023/12/03 06:05:13;;;;;;;9.00;5.40;;;;;;;-4.78;92.59;96394.38;108831;1267;25438;-78
2023/12/03 06:07:42;;;;;;;14.60;7.60;;;;;;;-4.80;92.48;96399.84;108766;1273;25515;-78
2023/12/03 06:10:11;;;;;;;16.40;8.10;;;;;;;-4.81;92.48;96402.27;108790;1273;22659;-78
2023/12/03 06:12:39;;;;;;;9.90;5.70;;;;;;;-4.82;92.43;96408.02;108781;1273;23951;-78
2023/12/03 06:15:10;;;;;;;8.70;5.80;;;;;;;-4.82;92.22;96408.10;108800;1270;23087;-78
2023/12/03 06:17:38;;;;;;;6.90;4.70;;;;;;;-4.83;92.16;96410.89;108786;1273;22521;-77
2023/12/03 06:20:09;;;;;;;10.20;4.70;;;;;;;-4.82;92.02;96414.43;108816;1267;22609;-78
2023/12/03 06:22:40;;;;;;;9.80;4.70;;;;;;;-4.83;91.74;96416.49;108827;1273;25297;-78
2023/12/03 06:25:12;;;;;;;8.30;4.40;;;;;;;-4.86;91.70;96410.27;108747;1273;22528;-78
2023/12/03 06:27:41;;;;;;;11.70;6.30;;;;;;;-4.88;91.75;96419.69;108787;1270;22532;-77
2023/12/03 06:30:11;;;;;;;13.00;5.50;;;;;;;-4.90;91.90;96418.72;108769;1270;22148;-79
2023/12/03 06:32:43;;;;;;;8.90;4.20;;;;;;;-4.92;91.91;96430.35;108821;1272;22586;-78
2023/12/03 06:35:15;;;;;;;6.90;3.80;;;;;;;-4.93;92.04;96435.97;108764;1273;22535;-78
2023/12/03 06:37:44;;;;;;;8.20;4.80;;;;;;;-4.93;92.06;96435.62;108766;1273;24199;-78
2023/12/03 06:40:15;;;;;;;14.00;6.50;;;;;;;-4.92;92.20;96439.53;108736;1269;22516;-78
2023/12/03 06:42:43;;;;;;;8.70;4.40;;;;;;;-4.92;92.23;96442.20;108798;1273;22524;-78
2023/12/03 06:45:15;;;;;;;9.40;3.80;;;;;;;-4.90;92.30;96451.25;108797;1270;23028;-78
2023/12/03 06:47:43;;;;;;;6.70;4.50;;;;;;;-4.90;92.17;96452.64;108759;1273;22521;-78
2023/12/03 06:50:11;;;;;;;7.00;4.10;;;;;;;-4.89;92.02;96451.49;108769;1273;23845;-78
2023/12/03 06:52:41;;;;;;;8.00;4.60;;;;;;;-4.88;91.89;96459.30;108791;1273;21699;-78
2023/12/03 06:55:10;;;;;;;8.60;4.10;;;;;;;-4.89;91.77;96459.45;108760;1270;22665;-78
2023/12/03 06:57:39;;;;;;;9.70;3.80;;;;;;;-4.90;91.91;96468.23;108725;1273;22537;-78
2023/12/03 07:00:15;;;;;;;9.20;5.40;;;;;;;-4.91;91.91;96470.09;108790;1273;25316;-79
2023/12/03 07:02:44;;;;;;;6.40;4.00;;;;;;;-4.93;92.10;96474.23;108747;1273;22517;-78
2023/12/03 07:05:13;;;;;;;5.70;3.80;;;;;;;-4.93;92.10;96478.05;108752;1273;22625;-78
2023/12/03 07:07:41;;;;;;;6.80;4.70;;;;;;;-4.93;92.32;96491.33;108738;1267;46356;-78
2023/12/03 07:10:11;;;;;;;9.10;4.00;;;;;;;-4.92;92.34;96484.31;108760;1273;22525;-78
2023/12/03 07:12:42;;;;;;;10.30;5.20;;;;;;;-4.91;92.41;96493.67;108830;1273;22521;-78
2023/12/03 07:15:11;;;;;;;6.10;3.70;;;;;;;-4.90;92.38;96488.04;108732;1273;22599;-78
2023/12/03 07:17:40;;;;;;;;;;;;;;;-4.89;92.41;96489.12;108791;1269;24301;-78
2023/12/03 07:20:10;;;;;;;9.30;4.90;;;;;;;-4.88;92.28;96495.89;108754;1256;22566;-78
2023/12/03 07:22:40;;;;;;;7.70;3.90;;;;;;;-4.89;92.31;96493.54;108826;1269;22564;-78
2023/12/03 07:25:09;;;;;;;7.00;4.20;;;;;;;-4.88;92.37;96497.44;108762;1269;22781;-78
2023/12/03 07:27:38;;;;;;;5.80;3.60;;;;;;;-4.89;92.35;96500.06;108795;1273;25291;-78
2023/12/03 07:30:12;;;;;;;6.90;4.20;;;;;;;-4.88;92.39;96502.26;108748;1273;22679;-78
2023/12/03 07:32:42;;;;;;;6.90;4.40;;;;;;;-4.88;92.48;96504.48;108829;1273;26424;-78
2023/12/03 07:35:11;;;;;;;;;;;;;;;-4.87;92.63;96508.89;108789;1273;24166;-78
2023/12/03 07:37:41;;;;;;;5.20;3.60;;;;;;;-4.88;92.66;96510.92;108745;1269;24241;-77
2023/12/03 07:40:13;;;;;;;6.60;3.50;;;;;;;-4.89;92.75;96514.45;108750;1273;22548;-78
2023/12/03 07:42:42;;;;;;;5.00;2.90;;;;;;;-4.89;93.03;96523.09;108785;1266;23920;-78
2023/12/03 07:45:10;;;;;;;6.90;3.40;;;;;;;-4.89;93.12;96526.15;108801;1266;22578;-78
2023/12/03 07:47:41;;;;;;;6.80;3.70;;;;;;;-4.89;93.34;96523.89;108753;1269;25233;-77
2023/12/03 07:50:10;;;;;;;7.20;3.60;;;;;;;-4.89;93.40;96525.52;108744;1266;22542;-78
2023/12/03 07:52:39;;;;;;;9.40;4.70;;;;;;;-4.90;93.57;96514.85;108778;1273;22545;-78
2023/12/03 07:55:10;;;;;;;6.00;4.40;;;;;;;-4.90;93.56;96521.61;108769;1266;26431;-78
2023/12/03 07:57:41;;;;;;;7.90;4.40;;;;;;;-4.87;93.83;96525.73;108766;1273;22547;-78
2023/12/03 08:00:12;;;;;;;8.60;3.90;;;;;;;-4.85;93.76;96520.65;108753;1273;22544;-78
2023/12/03 08:02:46;;;;;;;8.00;4.80;;;;;;;-4.83;93.88;96525.33;108769;1273;22556;-78
2023/12/03 08:05:23;;;;;;;9.60;4.50;;;;;;;-4.83;94.09;96525.95;108766;1273;24249;-78
2023/12/03 08:07:53;;;;;;;8.30;4.10;;;;;;;-4.82;94.14;96534.73;108785;1267;22730;-78
2023/12/03 08:10:24;;;;;;;13.30;4.70;;;;;;;-4.81;94.20;96541.73;108805;1272;22520;-78
2023/12/03 08:12:55;;;;;;;7.60;4.40;;;;;;;-4.81;94.35;96533.19;108778;1266;25417;-78
2023/12/03 08:15:25;;;;;;;10.30;6.30;;;;;;;-4.76;94.55;96547.80;108800;1273;23877;-79
2023/12/03 08:17:53;;;;;;;7.00;4.50;;;;;;;-4.75;94.38;96550.59;108740;1273;22606;-78
2023/12/03 08:20:23;;;;;;;9.10;5.10;;;;;;;-4.75;94.58;96559.86;108780;1266;22521;-78
2023/12/03 08:22:57;;;;;;;8.90;3.90;;;;;;;-4.74;94.73;96571.02;108763;1273;22756;-77
2023/12/03 08:25:26;;;;;;;7.90;5.00;;;;;;;-4.74;94.78;96579.80;108799;1273;22511;-78
2023/12/03 08:27:55;;;;;;;5.70;3.20;;;;;;;-4.72;94.86;96572.74;108742;1266;22713;-78
2023/12/03 08:30:28;;;;;;;8.60;4.90;;;;;;;-4.71;94.89;96591.45;108774;1273;22627;-79
2023/12/03 08:33:02;;;;;;;7.30;4.90;;;;;;;-4.74;95.25;96590.88;108796;1265;22667;-78
2023/12/03 08:35:31;;;;;;;6.50;3.60;;;;;;;-4.74;95.25;96594.02;108777;1273;22468;-78
2023/12/03 08:38:04;;;;;;;8.80;5.10;;;;;;;-4.74;95.53;96603.31;108765;1272;22642;-78
2023/12/03 08:40:36;;;;;;;7.70;4.40;;;;;;;-4.72;95.73;96605.20;108746;1273;22583;-78
2023/12/03 08:43:09;;;;;;;7.00;4.20;;;;;;;-4.71;95.85;96608.29;108782;1273;23781;-79
2023/12/03 08:45:48;;;;;;;6.70;3.90;;;;;;;-4.67;96.07;96608.20;108762;1267;24276;-79
2023/12/03 08:48:19;;;;;;;6.00;3.80;;;;;;;-4.65;96.17;96618.16;108717;1273;25271;-78
2023/12/03 08:50:50;;;;;;;5.60;3.30;;;;;;;-4.65;96.29;96628.98;108818;1273;22567;-78
2023/12/03 08:53:23;;;;;;;9.40;5.30;;;;;;;-4.63;96.34;96626.88;108813;1273;22576;-78
2023/12/03 08:55:59;;;;;;;8.20;3.60;;;;;;;-4.62;96.56;96634.61;108789;1273;22573;-78
2023/12/03 08:58:31;;;;;;;7.50;4.40;;;;;;;-4.59;96.62;96635.36;108678;1273;26955;-78
2023/12/03 09:01:03;;;;;;;13.10;4.80;;;;;;;-4.56;96.74;96639.80;108769;1252;22644;-79
2023/12/03 09:03:40;;;;;;;10.50;5.80;;;;;;;-4.55;96.79;96642.44;108804;1273;24214;-79
2023/12/03 09:06:19;;;;;;;8.00;4.20;;;;;;;-4.53;96.83;96650.48;108768;1266;24211;-79
2023/12/03 09:08:50;;;;;;;10.20;4.60;;;;;;;-4.49;96.84;96645.90;108799;1273;24090;-79
2023/12/03 09:11:20;;;;;;;8.90;4.90;;;;;;;-4.47;96.93;96647.71;108758;1270;22628;-79
2023/12/03 09:13:51;;;;;;;7.10;4.00;;;;;;;-4.45;97.01;96645.50;108760;1273;22796;-79
2023/12/03 09:16:32;;;;;;;6.30;4.50;;;;;;;-4.42;97.04;96655.36;108793;1266;22657;-79
2023/12/03 09:19:04;;;;;;;9.20;4.30;;;;;;;-4.39;97.03;96651.95;108767;1273;25508;-79
2023/12/03 09:21:37;;;;;;;7.30;4.60;;;;;;;-4.36;97.04;96653.05;108818;1273;24901;-79
2023/12/03 09:24:08;;;;;;;5.60;3.80;;;;;;;-4.31;97.03;96658.58;108757;1273;22517;-79
2023/12/03 09:26:37;;;;;;;8.80;4.40;;;;;;;-4.28;96.95;96657.45;108730;1270;27129;-78
2023/12/03 09:29:06;;;;;;;7.80;4.20;;;;;;;-4.22;97.01;96657.59;108778;1273;22524;-79
2023/12/03 09:31:35;;;;;;;7.50;4.10;;;;;;;-4.22;97.07;96657.09;108790;1266;22513;-79
2023/12/03 09:34:05;;;;;;;7.20;4.50;;;;;;;-4.21;96.98;96656.39;108797;1273;23019;-79
2023/12/03 09:36:35;;;;;;;8.00;4.80;;;;;;;-4.20;96.99;96658.94;108744;1259;26488;-79
2023/12/03 09:39:07;;;;;;;7.90;4.10;;;;;;;-4.21;97.03;96667.61;108729;1273;22526;-79
2023/12/03 09:41:49;;;;;;;7.20;4.20;;;;;;;-4.14;97.11;96664.60;108731;1273;25420;-79
2023/12/03 09:44:27;;;;;;;9.10;4.70;;;;;;;-4.09;97.07;96666.36;108779;1273;22532;-79
2023/12/03 09:47:00;;;;;;;7.20;3.80;;;;;;;-4.06;96.87;96666.88;108760;1251;22531;-79
2023/12/03 09:49:32;;;;;;;8.80;5.20;;;;;;;-4.06;96.98;96670.42;108801;1269;22771;-79
2023/12/03 09:52:07;;;;;;;8.40;4.70;;;;;;;-4.02;97.04;96672.85;108787;1273;25575;-79
2023/12/03 09:54:45;;;;;;;9.10;4.50;;;;;;;-4.00;96.96;96680.90;108789;1273;25239;-79
2023/12/03 09:57:16;;;;;;;10.00;5.90;;;;;;;-4.00;96.89;96678.39;108822;1273;24240;-79
2023/12/03 09:59:57;;;;;;;8.20;4.10;;;;;;;-3.95;96.96;96682.52;108790;1273;22521;-79
2023/12/03 10:02:30;;;;;;;11.90;6.30;;;;;;;-3.92;96.86;96683.70;108798;1273;22513;-79
2023/12/03 10:05:12;;;;;;;7.00;4.50;;;;;;;-3.90;96.76;96684.44;108781;1273;23863;-79
2023/12/03 10:07:51;;;;;;;7.70;5.00;;;;;;;-3.88;96.72;96680.79;108750;1273;24270;-78
2023/12/03 10:10:28;;;;;;;8.80;4.20;;;;;;;-3.84;96.86;96684.48;108838;1273;22543;-79
2023/12/03 10:13:11;;;;;;;10.40;6.60;;;;;;;-3.79;96.78;96684.69;108780;1273;24200;-79
2023/12/03 10:15:44;;;;;;;8.50;4.50;;;;;;;-3.72;96.80;96684.39;108782;1273;22566;-79
2023/12/03 10:18:18;;;;;;;11.70;5.10;;;;;;;-3.69;96.72;96691.23;108745;1269;22580;-79
2023/12/03 10:20:50;;;;;;;11.50;4.30;;;;;;;-3.64;96.63;96690.64;108791;1273;23267;-79
2023/12/03 10:23:23;;;;;;;8.50;4.00;;;;;;;-3.58;96.63;96691.84;108778;1250;22517;-79
2023/12/03 10:26:10;;;;;;;10.20;4.60;;;;;;;-3.58;96.42;96692.84;108814;1266;22542;-79
2023/12/03 10:28:42;;;;;;;9.80;4.50;;;;;;;-3.54;96.35;96695.77;108799;1270;22545;-79
2023/12/03 10:31:18;;;;;;;9.60;4.50;;;;;;;-3.49;96.22;96695.70;108754;1273;22654;-79
2023/12/03 10:33:50;;;;;;;6.30;3.60;;;;;;;-3.47;95.94;96699.31;108815;1273;25287;-79
2023/12/03 10:36:23;;;;;;;10.10;4.30;;;;;;;-3.42;95.84;96701.89;108819;1273;24314;-79
2023/12/03 10:38:57;;;;;;;5.80;3.10;;;;;;;-3.38;95.44;96708.30;108816;1266;24079;-79
2023/12/03 10:41:33;;;;;;;6.00;3.90;;;;;;;-3.39;95.17;96709.08;108823;1273;23774;-79
2023/12/03 10:44:05;;;;;;;8.00;4.00;;;;;;;-3.40;94.59;96709.08;108763;1266;22530;-79
2023/12/03 10:46:45;;;;;;;4.30;2.80;;;;;;;-3.45;94.13;96709.88;108763;1266;25762;-79
2023/12/03 10:49:24;;;;;;;9.10;4.00;;;;;;;-3.47;94.09;96710.19;108848;1272;22539;-79
2023/12/03 10:51:55;;;;;;;;;;;;;;;-3.45;94.02;96712.88;108816;1273;22495;-79
2023/12/03 10:54:30;;;;;;;8.50;4.90;;;;;;;-3.43;93.82;96707.95;108809;1266;23514;-79
2023/12/03 10:57:08;;;;;;;7.40;4.30;;;;;;;-3.38;93.69;96710.41;108772;1266;22567;-79
2023/12/03 10:59:44;;;;;;;4.10;3.00;;;;;;;-3.33;93.26;96718.16;108775;1273;24222;-79
2023/12/03 11:02:23;;;;;;;7.30;4.50;;;;;;;-3.27;93.01;96725.61;108840;1272;22517;-79
2023/12/03 11:05:05;;;;;;;8.60;4.30;;;;;;;-3.25;92.72;96723.15;108807;1270;22521;-79
2023/12/03 11:07:46;;;;;;;7.50;4.50;;;;;;;-3.25;92.61;96725.30;108815;1266;22527;-79
2023/12/03 11:10:22;;;;;;;9.80;5.70;;;;;;;-3.30;91.91;96724.92;108810;1266;22527;-79
2023/12/03 11:12:57;;;;;;;27.30;17.40;;;;;;;-3.37;92.01;96729.30;108810;1273;22990;-79
2023/12/03 11:15:31;;;;;;;12.70;6.30;;;;;;;-3.42;92.14;96735.14;108843;1273;22556;-79
2023/12/03 11:18:08;;;;;;;10.30;5.00;;;;;;;-3.46;92.23;96742.53;108746;1266;23294;-79
2023/12/03 11:20:47;;;;;;;7.10;3.90;;;;;;;-3.50;92.04;96745.38;108841;1267;22529;-79
2023/12/03 11:23:35;;;;;;;5.90;3.50;;;;;;;-3.52;91.94;96746.85;108780;1273;23878;-79
2023/12/03 11:26:22;;;;;;;8.90;4.70;;;;;;;-3.49;91.92;96752.27;108763;1267;25081;-79
2023/12/03 11:28:57;;;;;;;8.80;4.90;;;;;;;-3.47;91.71;96753.56;108781;1273;22527;-79
2023/12/03 11:31:28;;;;;;;6.20;3.70;;;;;;;-3.44;91.59;96765.10;108802;1265;23667;-79
2023/12/03 11:34:05;;;;;;;7.90;4.70;;;;;;;-3.34;91.84;96755.08;108793;1273;25453;-79
2023/12/03 11:36:47;;;;;;;9.10;5.50;;;;;;;-3.32;90.71;96766.02;108759;1270;23877;-79